Time;durP1;ratioP1;P1;durP2;ratioP2;P2;SDS_P1;SDS_P2;PMS_P1;PMS_P2;Temp;Humidity;BMP_temperature;BMP_pressure;BME280_temperature;BME280_humidity;BME280_pressure;Samples;Min_cycle;Max_cycle;Signal;HPM_P1;HPM_P2
2022/04/17 00:00:10;;;;;;;0.70;0.50;;;7.80;52.90;;;;;;5031936;28;20405;-72
2022/04/17 00:02:38;;;;;;;1.03;0.93;;;7.70;53.20;;;;;;5031691;28;20171;-72
2022/04/17 00:05:05;;;;;;;0.70;0.50;;;7.70;53.60;;;;;;5031845;28;20456;-73
2022/04/17 00:07:32;;;;;;;0.70;0.50;;;7.60;54.00;;;;;;5031842;28;20892;-73
2022/04/17 00:09:58;;;;;;;0.70;0.50;;;7.50;54.40;;;;;;5031864;28;20402;-73
2022/04/17 00:12:24;;;;;;;0.93;0.83;;;7.50;55.00;;;;;;5030361;28;20764;-73
2022/04/17 00:14:50;;;;;;;0.80;0.60;;;7.50;55.50;;;;;;5031917;28;20410;-72
2022/04/17 00:17:17;;;;;;;1.00;0.60;;;7.40;55.90;;;;;;5031626;28;20442;-72
2022/04/17 00:19:42;;;;;;;1.33;0.97;;;7.40;56.50;;;;;;5031592;28;20409;-72
2022/04/17 00:22:08;;;;;;;0.70;0.50;;;7.30;56.90;;;;;;5030170;28;20544;-73
2022/04/17 00:24:34;;;;;;;0.73;0.60;;;7.30;57.30;;;;;;5034090;28;20629;-72
2022/04/17 00:27:00;;;;;;;0.70;0.50;;;7.30;57.90;;;;;;5035750;28;20485;-72
2022/04/17 00:29:27;;;;;;;0.70;0.50;;;7.30;58.20;;;;;;5035820;28;20167;-72
2022/04/17 00:31:53;;;;;;;0.97;0.83;;;7.40;58.60;;;;;;5035309;28;20426;-73
2022/04/17 00:34:19;;;;;;;1.13;1.00;;;7.30;58.80;;;;;;5035652;28;20433;-71
2022/04/17 00:36:45;;;;;;;0.80;0.77;;;7.30;59.50;;;;;;5035349;28;20437;-71
2022/04/17 00:39:12;;;;;;;0.90;0.80;;;7.30;60.10;;;;;;5035560;28;20414;-72
2022/04/17 00:41:38;;;;;;;0.70;0.57;;;7.30;61.10;;;;;;5035094;28;20462;-73
2022/04/17 00:44:10;;;;;;;0.70;0.50;;;7.30;61.60;;;;;;5035483;28;20488;-72
2022/04/17 00:46:36;;;;;;;0.70;0.50;;;7.30;62.10;;;;;;5035257;28;20211;-72
2022/04/17 00:49:01;;;;;;;0.70;0.50;;;7.30;62.60;;;;;;5035348;28;20449;-72
2022/04/17 00:51:27;;;;;;;0.70;0.50;;;7.30;63.80;;;;;;5035058;28;20184;-72
2022/04/17 00:53:53;;;;;;;1.30;0.70;;;7.40;64.00;;;;;;5035305;28;20175;-72
2022/04/17 00:56:22;;;;;;;1.00;0.90;;;7.40;65.00;;;;;;5035106;28;20572;-72
2022/04/17 00:58:47;;;;;;;1.33;1.10;;;7.40;65.60;;;;;;5035203;28;20625;-72
2022/04/17 01:01:13;;;;;;;1.07;0.97;;;7.40;66.10;;;;;;5034707;28;20454;-72
2022/04/17 01:03:38;;;;;;;0.70;0.50;;;7.30;66.70;;;;;;5035095;28;20707;-72
2022/04/17 01:06:04;;;;;;;0.80;0.63;;;7.30;67.40;;;;;;5035029;28;20187;-72
2022/04/17 01:08:30;;;;;;;0.70;0.50;;;7.30;68.00;;;;;;5035074;28;20510;-73
2022/04/17 01:10:57;;;;;;;0.80;0.80;;;7.20;69.70;;;;;;5035067;28;20688;-73
2022/04/17 01:13:23;;;;;;;1.20;0.90;;;7.20;71.00;;;;;;5034994;28;20410;-72
2022/04/17 01:15:49;;;;;;;1.87;1.77;;;7.20;72.50;;;;;;5034803;28;20808;-72
2022/04/17 01:18:15;;;;;;;1.07;0.70;;;7.20;74.30;;;;;;5033521;28;20445;-71
2022/04/17 01:20:41;;;;;;;0.80;0.70;;;7.10;75.50;;;;;;5034505;28;20183;-72
2022/04/17 01:28:51;;;;;;;0.70;0.50;;;7.00;82.00;;;;;;5052249;28;20769;-72
2022/04/17 01:31:17;;;;;;;0.70;0.50;;;7.00;85.40;;;;;;5038143;28;20406;-72
2022/04/17 01:33:42;;;;;;;0.70;0.50;;;6.90;86.50;;;;;;5034449;28;20255;-72
2022/04/17 01:36:08;;;;;;;0.70;0.60;;;6.90;89.00;;;;;;5032463;28;20191;-72
2022/04/17 01:38:33;;;;;;;0.70;0.50;;;6.90;88.80;;;;;;5034454;28;20226;-72
2022/04/17 01:40:59;;;;;;;0.70;0.50;;;7.00;90.40;;;;;;5034163;28;20259;-73
2022/04/17 01:43:24;;;;;;;0.90;0.70;;;6.90;90.80;;;;;;5033180;28;20262;-73
2022/04/17 01:45:50;;;;;;;0.80;0.70;;;6.80;91.90;;;;;;5034300;28;20217;-72
2022/04/17 01:48:16;;;;;;;0.70;0.50;;;6.70;92.90;;;;;;5034231;28;20622;-73
2022/04/17 01:50:41;;;;;;;1.13;0.70;;;6.70;93.40;;;;;;5033903;28;20171;-72
2022/04/17 01:53:06;;;;;;;0.80;0.60;;;6.70;94.40;;;;;;5033867;28;20221;-72
2022/04/17 01:55:32;;;;;;;0.70;0.50;;;6.70;94.10;;;;;;5034076;28;20191;-72
2022/04/17 01:57:58;;;;;;;0.97;0.63;;;6.70;95.50;;;;;;5033983;28;20685;-72
2022/04/17 02:00:24;;;;;;;0.97;0.90;;;6.70;96.50;;;;;;5033866;28;20175;-71
2022/04/17 02:02:49;;;;;;;0.70;0.50;;;6.60;97.30;;;;;;5033458;28;20459;-72
2022/04/17 02:05:15;;;;;;;1.03;0.93;;;6.60;98.30;;;;;;5034033;28;20422;-72
2022/04/17 02:07:40;;;;;;;0.70;0.50;;;6.60;98.40;;;;;;5033720;28;20188;-72
2022/04/17 02:10:06;;;;;;;1.03;0.93;;;6.60;99.40;;;;;;5033964;28;20186;-72
2022/04/17 02:12:34;;;;;;;0.70;0.50;;;6.60;99.80;;;;;;5033648;28;20164;-72
2022/04/17 02:15:00;;;;;;;0.80;0.60;;;6.60;99.90;;;;;;5033738;28;20642;-72
2022/04/17 02:17:25;;;;;;;0.70;0.53;;;6.50;99.90;;;;;;5033653;28;20505;-72
2022/04/17 02:19:51;;;;;;;0.80;0.60;;;6.50;99.90;;;;;;5033504;28;20438;-72
2022/04/17 02:22:17;;;;;;;0.70;0.40;;;6.50;99.90;;;;;;5033320;28;20249;-72
2022/04/17 02:24:43;;;;;;;0.70;0.50;;;6.40;99.90;;;;;;5033393;28;20174;-72
2022/04/17 02:27:08;;;;;;;2.53;2.43;;;6.30;99.90;;;;;;5033498;28;20453;-72
2022/04/17 02:29:34;;;;;;;0.80;0.53;;;6.20;99.90;;;;;;5033653;28;20163;-71
2022/04/17 02:32:00;;;;;;;0.70;0.60;;;6.10;99.90;;;;;;5033272;28;20172;-71
2022/04/17 02:34:25;;;;;;;0.70;0.50;;;6.00;99.90;;;;;;5033460;28;20172;-71
2022/04/17 02:36:51;;;;;;;0.70;0.47;;;5.90;99.90;;;;;;5033346;28;20223;-72
2022/04/17 02:39:16;;;;;;;0.80;0.60;;;5.90;99.90;;;;;;5033335;28;20206;-73
2022/04/17 02:41:42;;;;;;;0.70;0.50;;;5.80;99.90;;;;;;5033808;28;20458;-73
2022/04/17 02:44:07;;;;;;;2.50;0.93;;;5.70;99.90;;;;;;5034242;28;20167;-72
2022/04/17 02:49:17;;;;;;;0.70;0.50;;;5.70;99.90;;;;;;5033945;28;20643;-72
2022/04/17 02:51:42;;;;;;;0.70;0.57;;;5.70;99.90;;;;;;5032971;28;20560;-72
2022/04/17 02:54:08;;;;;;;0.70;0.50;;;5.80;99.90;;;;;;5033005;28;20253;-71
2022/04/17 02:56:33;;;;;;;2.17;1.90;;;5.70;99.90;;;;;;5032940;28;20210;-71
2022/04/17 02:58:59;;;;;;;0.80;0.60;;;5.70;99.90;;;;;;5033279;28;20168;-72
2022/04/17 03:06:54;;;;;;;0.70;0.50;;;5.70;99.90;;;;;;5033007;28;20476;-72
2022/04/17 03:09:19;;;;;;;0.80;0.70;;;5.70;99.90;;;;;;5032912;28;20402;-72
2022/04/17 03:11:45;;;;;;;0.70;0.50;;;5.60;99.90;;;;;;5032349;28;20192;-71
2022/04/17 03:14:10;;;;;;;0.70;0.50;;;5.60;99.90;;;;;;5032676;28;20580;-71
2022/04/17 03:16:36;;;;;;;0.70;0.50;;;5.50;99.90;;;;;;5032480;28;20535;-71
2022/04/17 03:19:02;;;;;;;0.80;0.70;;;5.50;99.90;;;;;;5032549;28;20259;-71
2022/04/17 03:21:28;;;;;;;0.70;0.60;;;5.40;99.90;;;;;;5032186;28;20407;-71
2022/04/17 03:23:54;;;;;;;0.77;0.60;;;5.30;99.90;;;;;;5032478;28;20406;-72
2022/04/17 03:26:19;;;;;;;0.80;0.60;;;5.30;99.90;;;;;;5032402;28;20183;-72
2022/04/17 03:28:45;;;;;;;0.70;0.50;;;5.30;99.90;;;;;;5032158;28;20512;-72
2022/04/17 03:31:10;;;;;;;0.70;0.50;;;5.30;99.90;;;;;;5032005;28;20191;-72
2022/04/17 03:33:36;;;;;;;0.80;0.80;;;5.30;99.90;;;;;;5032349;28;20167;-72
2022/04/17 03:36:02;;;;;;;0.70;0.50;;;5.40;99.90;;;;;;5032221;28;20184;-71
2022/04/17 03:38:28;;;;;;;0.70;0.50;;;5.30;99.90;;;;;;5032248;28;20406;-72
2022/04/17 03:40:54;;;;;;;0.70;0.50;;;5.30;99.90;;;;;;5032008;28;20795;-71
2022/04/17 03:43:22;;;;;;;1.00;0.60;;;5.20;99.90;;;;;;5032247;28;20167;-73
2022/04/17 03:45:49;;;;;;;2.20;0.83;;;5.30;99.90;;;;;;5031981;28;20164;-72
2022/04/17 03:48:16;;;;;;;0.70;0.50;;;5.30;99.90;;;;;;5032209;28;20875;-72
2022/04/17 03:50:42;;;;;;;0.70;0.50;;;5.20;99.90;;;;;;5032088;28;20973;-72
2022/04/17 03:53:07;;;;;;;0.70;0.50;;;5.20;99.90;;;;;;5032061;28;20402;-72
2022/04/17 03:55:33;;;;;;;0.70;0.50;;;5.10;99.90;;;;;;5031994;28;20184;-72
2022/04/17 03:57:58;;;;;;;4.60;1.10;;;5.00;99.90;;;;;;5031624;28;20700;-72
2022/04/17 04:00:24;;;;;;;0.90;0.70;;;5.00;99.90;;;;;;5031852;28;20168;-72
2022/04/17 04:02:52;;;;;;;1.13;1.03;;;4.90;99.90;;;;;;5031658;28;20671;-72
2022/04/17 04:05:19;;;;;;;0.70;0.50;;;4.80;99.90;;;;;;5030730;28;20178;-72
2022/04/17 04:07:45;;;;;;;0.70;0.50;;;4.80;99.90;;;;;;5031910;28;20425;-72
2022/04/17 04:10:10;;;;;;;1.93;0.80;;;4.80;99.90;;;;;;5031839;28;20752;-73
2022/04/17 04:12:37;;;;;;;0.70;0.50;;;4.80;99.90;;;;;;5031635;28;20163;-72
2022/04/17 04:15:04;;;;;;;4.63;1.03;;;4.80;99.90;;;;;;5031844;28;20160;-72
2022/04/17 04:17:29;;;;;;;0.80;0.60;;;4.80;99.90;;;;;;5031714;28;20469;-73
2022/04/17 04:19:55;;;;;;;0.70;0.50;;;4.80;99.90;;;;;;5031853;28;20426;-72
2022/04/17 04:22:21;;;;;;;0.70;0.50;;;4.80;99.90;;;;;;5031557;28;20172;-73
2022/04/17 04:24:47;;;;;;;0.80;0.77;;;4.70;99.90;;;;;;5031894;28;20201;-72
2022/04/17 04:29:56;;;;;;;1.80;1.47;;;4.50;99.90;;;;;;5031851;28;20408;-72
2022/04/17 04:32:22;;;;;;;0.70;0.50;;;4.50;99.90;;;;;;5031478;28;20847;-72
2022/04/17 04:34:48;;;;;;;0.70;0.50;;;4.50;99.90;;;;;;5030576;28;20168;-72
2022/04/17 04:37:13;;;;;;;1.00;0.80;;;4.40;99.90;;;;;;5031651;28;20227;-72
2022/04/17 04:39:39;;;;;;;0.70;0.50;;;4.50;99.90;;;;;;5031677;28;20398;-72
2022/04/17 04:42:05;;;;;;;0.70;0.50;;;4.50;99.90;;;;;;5031461;28;20160;-72
2022/04/17 04:44:30;;;;;;;0.70;0.50;;;4.50;99.90;;;;;;5031605;28;20301;-72
2022/04/17 04:46:56;;;;;;;1.07;0.87;;;4.50;99.90;;;;;;5031545;28;20258;-72
2022/04/17 04:49:30;;;;;;;0.70;0.50;;;4.40;99.90;;;;;;5030393;28;20171;-72
2022/04/17 04:52:00;;;;;;;0.97;0.80;;;4.50;99.90;;;;;;5031260;28;20199;-72
2022/04/17 04:54:26;;;;;;;0.83;0.83;;;4.40;99.90;;;;;;5031424;28;20437;-72
2022/04/17 04:56:52;;;;;;;1.00;0.60;;;4.40;99.90;;;;;;5031469;28;20572;-72
2022/04/17 04:59:19;;;;;;;0.70;0.40;;;4.50;99.90;;;;;;5031356;28;20493;-72
2022/04/17 05:01:45;;;;;;;0.80;0.60;;;4.50;99.90;;;;;;5031258;28;20238;-72
2022/04/17 05:04:10;;;;;;;0.70;0.50;;;4.60;99.90;;;;;;5030150;28;20496;-71
2022/04/17 05:06:36;;;;;;;0.70;0.50;;;4.70;99.90;;;;;;5031380;28;20261;-72
2022/04/17 05:09:01;;;;;;;0.70;0.50;;;4.80;99.90;;;;;;5031314;28;20167;-72
2022/04/17 05:11:27;;;;;;;0.70;0.50;;;5.00;99.90;;;;;;5033513;28;20206;-72
2022/04/17 05:13:52;;;;;;;0.70;0.50;;;5.30;99.90;;;;;;5033668;28;20168;-73
2022/04/17 05:16:18;;;;;;;0.70;0.50;;;5.60;99.90;;;;;;5034735;28;20184;-72
2022/04/17 05:18:44;;;;;;;1.10;1.00;;;5.80;99.90;;;;;;5034852;28;20573;-72
2022/04/17 05:21:09;;;;;;;1.20;0.60;;;6.10;99.90;;;;;;5034479;28;20191;-71
2022/04/17 05:23:37;;;;;;;0.70;0.50;;;6.30;99.90;;;;;;5033504;28;20791;-72
2022/04/17 05:26:03;;;;;;;0.70;0.50;;;6.60;99.90;;;;;;5034621;28;20188;-72
2022/04/17 05:28:29;;;;;;;1.23;0.60;;;6.80;99.90;;;;;;5034645;28;20810;-72
2022/04/17 05:30:55;;;;;;;0.70;0.50;;;6.90;99.90;;;;;;5034296;28;20446;-73
2022/04/17 05:33:22;;;;;;;0.70;0.50;;;7.10;99.90;;;;;;5034453;28;20916;-73
2022/04/17 05:35:49;;;;;;;0.70;0.50;;;7.50;99.90;;;;;;5033306;28;20417;-73
2022/04/17 05:38:15;;;;;;;0.80;0.73;;;8.10;99.90;;;;;;5034292;28;20456;-73
2022/04/17 05:40:42;;;;;;;0.80;0.60;;;8.80;99.90;;;;;;5034351;28;20409;-73
2022/04/17 05:43:09;;;;;;;0.70;0.50;;;9.30;99.90;;;;;;5034084;28;20410;-73
2022/04/17 05:45:35;;;;;;;1.10;0.60;;;10.00;99.90;;;;;;5034294;28;20889;-73
2022/04/17 05:48:01;;;;;;;1.20;0.80;;;10.70;99.90;;;;;;5034182;28;20560;-73
2022/04/17 05:50:28;;;;;;;2.40;0.80;;;11.20;99.90;;;;;;5034202;28;20168;-73
2022/04/17 05:52:54;;;;;;;1.20;0.70;;;11.70;99.90;;;;;;5033985;28;20394;-73
2022/04/17 05:55:20;;;;;;;0.80;0.70;;;12.20;97.20;;;;;;5034089;28;20639;-74
2022/04/17 05:57:46;;;;;;;1.23;1.13;;;12.70;94.30;;;;;;5034025;28;20418;-73
2022/04/17 06:00:12;;;;;;;0.80;0.70;;;13.00;91.40;;;;;;5033930;28;20402;-73
2022/04/17 06:02:38;;;;;;;1.10;1.00;;;13.20;88.50;;;;;;5033760;28;20641;-74
2022/04/17 06:05:05;;;;;;;0.93;0.80;;;13.30;83.10;;;;;;5033854;28;20907;-73
2022/04/17 06:07:31;;;;;;;1.00;0.90;;;13.60;81.40;;;;;;5033743;28;20513;-73
2022/04/17 06:10:07;;;;;;;0.80;0.50;;;14.00;79.40;;;;;;5033975;28;20406;-73
2022/04/17 06:12:33;;;;;;;1.20;1.00;;;14.40;77.90;;;;;;5033493;28;20453;-73
2022/04/17 06:14:59;;;;;;;0.80;0.67;;;14.80;74.80;;;;;;5033921;28;20409;-74
2022/04/17 06:17:24;;;;;;;0.80;0.70;;;15.20;71.40;;;;;;5033682;28;20426;-73
2022/04/17 06:19:50;;;;;;;1.23;1.13;;;15.60;68.70;;;;;;5033775;28;20171;-74
2022/04/17 06:22:17;;;;;;;0.90;0.80;;;16.20;68.10;;;;;;5033201;28;20221;-74
2022/04/17 06:24:43;;;;;;;0.83;0.63;;;16.70;65.00;;;;;;5033723;28;20637;-74
2022/04/17 06:27:09;;;;;;;1.50;1.40;;;17.10;62.00;;;;;;5033496;28;20441;-74
2022/04/17 06:29:35;;;;;;;1.53;0.97;;;17.40;60.40;;;;;;5033593;28;20838;-74
2022/04/17 06:32:00;;;;;;;1.30;1.10;;;17.30;57.00;;;;;;5033237;28;20275;-74
2022/04/17 06:34:26;;;;;;;1.10;1.00;;;17.40;56.20;;;;;;5033470;28;20164;-74
2022/04/17 06:36:51;;;;;;;0.97;0.80;;;17.70;55.90;;;;;;5033329;28;20528;-74
2022/04/17 06:39:17;;;;;;;1.07;0.90;;;17.90;54.80;;;;;;5033428;28;20680;-74
2022/04/17 06:41:44;;;;;;;0.97;0.80;;;18.00;53.80;;;;;;5033406;28;20175;-74
2022/04/17 06:44:13;;;;;;;0.90;0.70;;;18.30;53.60;;;;;;5033241;28;20174;-74
2022/04/17 06:46:39;;;;;;;1.00;0.80;;;18.50;52.40;;;;;;5033189;28;20523;-74
2022/04/17 06:49:07;;;;;;;1.10;1.00;;;18.50;51.00;;;;;;5033101;28;20438;-73
2022/04/17 06:51:33;;;;;;;1.50;1.20;;;18.60;50.50;;;;;;5032856;28;20454;-73
2022/04/17 06:53:58;;;;;;;0.80;0.70;;;18.70;50.00;;;;;;5033096;28;20409;-74
2022/04/17 06:56:24;;;;;;;1.13;1.03;;;18.80;49.00;;;;;;5032831;28;20205;-74
2022/04/17 06:58:49;;;;;;;0.90;0.77;;;18.90;48.50;;;;;;5032966;28;20175;-74
2022/04/17 07:01:15;;;;;;;0.90;0.73;;;19.10;48.20;;;;;;5032690;28;20172;-73
2022/04/17 07:03:49;;;;;;;1.67;0.93;;;19.40;47.90;;;;;;5032840;28;20190;-74
2022/04/17 07:06:15;;;;;;;0.80;0.70;;;19.60;47.40;;;;;;5031504;28;20187;-74
2022/04/17 07:08:41;;;;;;;1.30;0.90;;;19.90;47.40;;;;;;5032880;28;20461;-74
2022/04/17 07:11:06;;;;;;;1.53;1.30;;;20.00;46.30;;;;;;5032461;28;20192;-74
2022/04/17 07:13:32;;;;;;;1.97;0.77;;;20.40;45.70;;;;;;5032825;28;20206;-74
2022/04/17 07:15:58;;;;;;;1.20;0.80;;;20.90;45.20;;;;;;5032669;28;20180;-74
2022/04/17 07:18:26;;;;;;;0.90;0.80;;;21.10;44.90;;;;;;5032615;28;20408;-74
2022/04/17 07:20:52;;;;;;;1.00;0.70;;;21.60;44.20;;;;;;5032638;28;20199;-74
2022/04/17 07:23:18;;;;;;;0.90;0.60;;;21.90;43.40;;;;;;5032366;28;20398;-74
2022/04/17 07:25:44;;;;;;;1.27;1.17;;;22.10;42.80;;;;;;5032487;28;20518;-74
2022/04/17 07:28:14;;;;;;;1.80;1.53;;;22.40;42.80;;;;;;5032505;28;20168;-74
2022/04/17 07:30:40;;;;;;;1.30;0.90;;;22.80;42.60;;;;;;5031059;28;20454;-74
2022/04/17 07:33:05;;;;;;;0.90;0.70;;;23.10;41.90;;;;;;5031621;28;20548;-74
2022/04/17 07:35:31;;;;;;;1.10;0.97;;;23.30;41.20;;;;;;5032335;28;20438;-74
2022/04/17 07:37:59;;;;;;;1.50;1.40;;;23.50;40.00;;;;;;5032373;28;20190;-74
2022/04/17 07:40:27;;;;;;;1.70;1.17;;;23.60;39.60;;;;;;5032319;28;20557;-74
2022/04/17 07:42:54;;;;;;;1.73;1.37;;;24.10;40.00;;;;;;5032155;28;20768;-74
2022/04/17 07:45:21;;;;;;;2.60;1.70;;;24.20;39.40;;;;;;5032198;28;20402;-74
2022/04/17 07:47:48;;;;;;;1.00;0.80;;;24.30;38.90;;;;;;5032133;28;20426;-74
2022/04/17 07:50:16;;;;;;;1.47;0.87;;;24.40;38.10;;;;;;5032107;28;20402;-74
2022/04/17 07:52:42;;;;;;;1.67;1.37;;;24.60;37.40;;;;;;5031754;28;20449;-74
2022/04/17 07:55:11;;;;;;;1.10;1.00;;;24.20;37.50;;;;;;5031998;28;20928;-74
2022/04/17 08:00:22;;;;;;;2.20;1.33;;;24.10;37.70;;;;;;5032165;28;20763;-74
2022/04/17 08:05:58;;;;;;;1.00;0.80;;;24.80;37.40;;;;;;5032367;28;20763;-74
2022/04/17 08:08:28;;;;;;;1.20;1.10;;;24.50;36.70;;;;;;5030814;28;20497;-74
2022/04/17 08:14:13;;;;;;;1.00;0.90;;;25.30;37.40;;;;;;5031944;28;20472;-74
2022/04/17 08:16:44;;;;;;;1.73;1.47;;;26.10;36.60;;;;;;5030723;28;20849;-75
2022/04/17 08:19:13;;;;;;;1.70;1.20;;;27.10;36.40;;;;;;5031822;28;20465;-75
2022/04/17 08:21:54;;;;;;;1.23;1.13;;;27.60;34.90;;;;;;5030587;28;20455;-76
2022/04/17 08:24:53;;;;;;;1.40;0.80;;;28.20;34.70;;;;;;5031926;28;20406;-75
2022/04/17 08:34:19;;;;;;;1.00;0.90;;;29.50;32.70;;;;;;5018185;28;20985;-75
2022/04/17 08:37:08;;;;;;;1.20;1.00;;;29.70;31.50;;;;;;5030438;28;20437;-75
2022/04/17 08:42:45;;;;;;;1.67;1.03;;;30.10;31.40;;;;;;5031492;28;20453;-73
2022/04/17 08:45:26;;;;;;;1.80;1.57;;;29.90;30.00;;;;;;5028452;28;20767;-73
2022/04/17 08:51:22;;;;;;;1.50;1.20;;;30.10;31.40;;;;;;5034217;28;20412;-74
2022/04/17 08:54:15;;;;;;;1.10;1.00;;;30.50;31.00;;;;;;5034089;28;20418;-74
2022/04/17 08:56:50;;;;;;;0.90;0.80;;;31.40;30.00;;;;;;5033915;28;20533;-73
2022/04/17 09:03:43;;;;;;;1.70;0.83;;;32.30;29.30;;;;;;5032908;28;20430;-74
2022/04/17 09:10:03;;;;;;;1.60;0.90;;;32.30;29.10;;;;;;5035973;28;21002;-74
2022/04/17 09:13:27;;;;;;;;;;;;;;;;;;;;;
2022/04/17 09:16:38;;;;;;;1.07;0.97;;;32.40;27.60;;;;;;5033706;28;20428;-74
2022/04/17 09:22:56;;;;;;;1.00;0.80;;;34.30;27.90;;;;;;5034398;28;20458;-74
2022/04/17 09:25:51;;;;;;;1.73;1.10;;;34.30;27.30;;;;;;5033595;28;20915;-74
2022/04/17 09:32:00;;;;;;;1.30;1.20;;;34.50;27.00;;;;;;5042378;28;20421;-75
2022/04/17 09:41:51;;;;;;;1.10;1.00;;;37.20;26.40;;;;;;5034987;28;20508;-74
2022/04/17 09:44:54;;;;;;;1.20;1.10;;;37.50;26.10;;;;;;5033303;28;20418;-75
2022/04/17 09:48:07;;;;;;;1.10;1.00;;;37.50;25.50;;;;;;5300461;22;20488;-74
2022/04/17 09:53:58;;;;;;;2.10;1.60;;;37.10;25.10;;;;;;5011538;28;20430;-74
2022/04/17 09:56:58;;;;;;;1.40;1.10;;;37.20;25.90;;;;;;4997764;28;20448;-74
2022/04/17 10:00:00;;;;;;;1.30;1.10;;;37.50;25.10;;;;;;4994787;28;20423;-74
2022/04/17 10:02:26;;;;;;;1.03;0.90;;;37.20;24.70;;;;;;5011666;28;20465;-75
2022/04/17 10:05:03;;;;;;;1.10;0.90;;;36.90;24.90;;;;;;5031136;28;20414;-74
2022/04/17 10:08:19;;;;;;;1.30;1.17;;;37.20;25.00;;;;;;5034155;28;20831;-74
2022/04/17 10:10:52;;;;;;;1.20;1.10;;;37.70;25.30;;;;;;5020999;28;20515;-74
2022/04/17 10:13:33;;;;;;;1.40;1.30;;;37.90;24.90;;;;;;5011587;28;20545;-75
2022/04/17 10:16:07;;;;;;;3.57;1.23;;;38.40;25.50;;;;;;5031571;28;20434;-74
2022/04/17 10:18:50;;;;;;;1.30;1.10;;;38.70;24.90;;;;;;5024385;28;20778;-74
2022/04/17 10:21:49;;;;;;;2.30;2.10;;;39.60;25.00;;;;;;5027390;28;20503;-75
2022/04/17 10:24:26;;;;;;;1.50;0.97;;;40.10;24.80;;;;;;4995052;28;20476;-75
2022/04/17 10:27:07;;;;;;;1.10;1.00;;;40.60;24.50;;;;;;5032022;28;20457;-75
2022/04/17 10:30:32;;;;;;;;;;;;;;;;;;;;;
2022/04/17 10:33:47;;;;;;;1.40;1.30;;;41.00;23.90;;;;;;5025770;28;20443;-75
2022/04/17 10:36:56;;;;;;;1.20;1.10;;;41.00;23.60;;;;;;5033320;28;20436;-74
2022/04/17 10:39:30;;;;;;;1.50;1.40;;;40.90;23.20;;;;;;5030706;28;20418;-75
2022/04/17 10:41:57;;;;;;;1.40;1.20;;;40.70;23.30;;;;;;5031893;28;20445;-74
2022/04/17 10:44:31;;;;;;;1.10;1.00;;;40.60;23.10;;;;;;5033205;28;20488;-75
2022/04/17 10:46:56;;;;;;;1.87;1.67;;;40.70;23.40;;;;;;5015937;28;20446;-74
2022/04/17 10:49:27;;;;;;;1.10;1.00;;;40.60;23.10;;;;;;5033232;28;20407;-75
2022/04/17 10:51:54;;;;;;;1.03;0.93;;;41.00;23.10;;;;;;5032806;28;20181;-75
2022/04/17 10:55:22;;;;;;;1.40;1.30;;;40.90;22.90;;;;;;5033193;28;20410;-75
2022/04/17 10:57:52;;;;;;;1.40;1.10;;;40.10;22.50;;;;;;4932163;29;20449;-75
2022/04/17 11:00:41;;;;;;;1.17;1.00;;;39.70;23.10;;;;;;4952415;29;20417;-74
2022/04/17 11:03:26;;;;;;;0.90;0.80;;;39.60;23.20;;;;;;5006379;28;20750;-75
2022/04/17 11:06:33;;;;;;;1.00;0.90;;;39.40;22.60;;;;;;4957642;28;20504;-74
2022/04/17 11:09:24;;;;;;;0.90;0.80;;;38.80;22.40;;;;;;5031445;28;20832;-74
2022/04/17 11:11:51;;;;;;;1.20;1.10;;;38.40;22.80;;;;;;5030986;28;21050;-74
2022/04/17 11:14:25;;;;;;;1.53;1.27;;;38.20;23.00;;;;;;5031175;28;20824;-74
2022/04/17 11:17:12;;;;;;;1.00;0.87;;;38.10;22.90;;;;;;5031362;28;20445;-74
2022/04/17 11:19:47;;;;;;;1.00;0.80;;;37.80;23.10;;;;;;5031120;28;20476;-74
2022/04/17 11:22:21;;;;;;;1.40;1.00;;;37.00;23.00;;;;;;5031277;28;20457;-74
2022/04/17 11:24:58;;;;;;;1.00;0.87;;;36.50;23.60;;;;;;5031055;28;20426;-74
2022/04/17 11:28:12;;;;;;;1.10;0.90;;;36.30;23.60;;;;;;5030659;28;20531;-74
2022/04/17 11:30:51;;;;;;;1.73;0.80;;;36.40;24.00;;;;;;5031770;28;20414;-74
2022/04/17 11:33:17;;;;;;;0.97;0.77;;;36.50;24.00;;;;;;5030765;28;20421;-74
2022/04/17 11:35:49;;;;;;;0.97;0.77;;;36.90;24.10;;;;;;5031034;28;20900;-75
2022/04/17 11:38:15;;;;;;;1.07;0.90;;;37.80;24.40;;;;;;5047564;28;20500;-74
2022/04/17 11:40:51;;;;;;;1.40;1.30;;;37.80;23.60;;;;;;5030804;28;20450;-74
2022/04/17 11:43:18;;;;;;;1.30;1.03;;;38.40;23.90;;;;;;5047430;28;20807;-74
2022/04/17 11:45:47;;;;;;;0.93;0.83;;;39.20;23.40;;;;;;5030997;28;20415;-74
2022/04/17 11:48:26;;;;;;;1.43;1.10;;;39.80;23.10;;;;;;5031990;28;20414;-74
2022/04/17 11:51:10;;;;;;;1.10;1.00;;;40.10;23.30;;;;;;5032308;28;20976;-75
2022/04/17 11:53:41;;;;;;;0.90;0.80;;;40.60;23.20;;;;;;5030502;28;20445;-75
2022/04/17 11:56:19;;;;;;;1.10;1.00;;;41.40;23.30;;;;;;5030857;28;20840;-75
2022/04/17 11:58:47;;;;;;;1.73;1.10;;;42.20;23.40;;;;;;5030928;28;20418;-75
2022/04/17 12:01:22;;;;;;;1.30;1.00;;;43.10;22.80;;;;;;5030614;28;20413;-75
2022/04/17 12:03:50;;;;;;;1.10;1.00;;;43.50;22.30;;;;;;5030262;28;20500;-75
2022/04/17 12:06:16;;;;;;;1.33;1.13;;;43.70;22.00;;;;;;5030461;28;20525;-75
2022/04/17 12:08:42;;;;;;;1.63;1.53;;;43.50;21.80;;;;;;5031879;28;20406;-75
2022/04/17 12:11:08;;;;;;;1.37;1.27;;;43.30;21.90;;;;;;5031915;28;20452;-75
2022/04/17 12:13:34;;;;;;;1.00;0.90;;;43.90;22.40;;;;;;5031655;28;20174;-75
2022/04/17 12:16:01;;;;;;;1.10;1.00;;;44.40;22.00;;;;;;5031730;28;20429;-76
2022/04/17 12:18:29;;;;;;;1.30;1.20;;;44.90;21.50;;;;;;5031842;28;20389;-75
2022/04/17 12:21:06;;;;;;;1.30;1.20;;;45.30;21.50;;;;;;5035483;28;20773;-75
2022/04/17 12:23:32;;;;;;;1.50;1.40;;;45.50;21.40;;;;;;5035670;28;20409;-75
2022/04/17 12:26:00;;;;;;;1.30;1.07;;;45.80;21.50;;;;;;5035771;28;20439;-75
2022/04/17 12:28:27;;;;;;;1.10;1.00;;;46.70;21.50;;;;;;5035798;28;20415;-75
2022/04/17 12:30:52;;;;;;;2.70;2.00;;;46.90;20.90;;;;;;5035664;28;20527;-75
2022/04/17 12:33:23;;;;;;;1.30;1.20;;;47.30;21.20;;;;;;5035476;28;20847;-75
2022/04/17 12:36:22;;;;;;;1.20;1.00;;;47.40;20.70;;;;;;5034324;28;20171;-75
2022/04/17 12:38:57;;;;;;;1.53;1.00;;;46.80;20.20;;;;;;5013085;28;20420;-75
2022/04/17 12:41:31;;;;;;;1.20;1.10;;;45.90;20.30;;;;;;5035547;28;20412;-74
2022/04/17 12:43:56;;;;;;;1.30;1.20;;;45.10;20.50;;;;;;5035493;28;20480;-74
2022/04/17 12:46:32;;;;;;;1.17;1.07;;;44.50;20.70;;;;;;5034204;28;21019;-74
2022/04/17 12:49:11;;;;;;;1.03;0.93;;;43.80;20.80;;;;;;5035402;28;20167;-75
2022/04/17 12:51:52;;;;;;;1.83;1.10;;;43.80;21.00;;;;;;5034977;28;20993;-75
2022/04/17 12:54:18;;;;;;;1.33;1.23;;;44.10;20.80;;;;;;5035305;28;20410;-75
2022/04/17 12:56:44;;;;;;;1.10;1.00;;;44.60;21.20;;;;;;5034883;28;20409;-74
2022/04/17 12:59:11;;;;;;;1.17;1.07;;;45.00;20.90;;;;;;5035299;28;20660;-75
2022/04/17 13:01:40;;;;;;;0.90;0.80;;;45.10;20.90;;;;;;5034984;28;20190;-75
2022/04/17 13:04:16;;;;;;;1.43;1.33;;;45.20;20.80;;;;;;5035006;28;20403;-76
2022/04/17 13:06:42;;;;;;;1.30;1.20;;;45.30;20.50;;;;;;5035272;28;20532;-75
2022/04/17 13:09:12;;;;;;;1.40;1.30;;;45.20;20.40;;;;;;5035082;28;20417;-75
2022/04/17 13:11:43;;;;;;;1.20;1.10;;;45.60;20.30;;;;;;5034951;28;20791;-75
2022/04/17 13:14:09;;;;;;;1.10;1.00;;;45.10;20.00;;;;;;5035021;28;20380;-75
2022/04/17 13:16:58;;;;;;;2.40;1.20;;;44.00;20.20;;;;;;5035334;28;20422;-75
2022/04/17 13:19:27;;;;;;;1.10;0.87;;;42.60;21.00;;;;;;5035008;28;20456;-74
2022/04/17 13:21:54;;;;;;;1.73;1.10;;;41.80;20.90;;;;;;5034799;28;20416;-74
2022/04/17 13:24:22;;;;;;;1.40;1.07;;;41.20;20.90;;;;;;5034926;28;20421;-74
2022/04/17 13:26:48;;;;;;;1.00;0.83;;;40.60;20.80;;;;;;5034670;28;20426;-75
2022/04/17 13:29:13;;;;;;;1.00;0.90;;;40.30;21.10;;;;;;5034636;28;20493;-74
2022/04/17 13:31:39;;;;;;;0.97;0.80;;;40.30;21.50;;;;;;5033415;28;20607;-74
2022/04/17 13:34:06;;;;;;;1.33;1.23;;;40.10;21.30;;;;;;5033401;28;20179;-74
2022/04/17 13:36:31;;;;;;;0.90;0.70;;;40.00;21.50;;;;;;5034661;28;20422;-74
2022/04/17 13:38:57;;;;;;;1.00;0.80;;;39.50;21.40;;;;;;5034516;28;20900;-73
2022/04/17 13:41:28;;;;;;;0.90;0.80;;;39.30;22.00;;;;;;5034611;28;20601;-75
2022/04/17 13:43:57;;;;;;;1.10;1.00;;;39.60;21.80;;;;;;5032922;28;20576;-75
2022/04/17 13:46:31;;;;;;;0.90;0.80;;;40.10;21.70;;;;;;5034314;28;20989;-75
2022/04/17 13:48:57;;;;;;;1.70;1.07;;;40.40;22.30;;;;;;5034479;28;20401;-74
2022/04/17 13:51:26;;;;;;;2.60;1.57;;;40.70;21.40;;;;;;5034307;28;20457;-74
2022/04/17 13:53:51;;;;;;;1.00;0.80;;;40.70;22.00;;;;;;5033961;28;20195;-75
2022/04/17 13:56:25;;;;;;;1.00;0.90;;;40.70;21.50;;;;;;5034260;28;20450;-75
2022/04/17 13:58:51;;;;;;;1.10;1.00;;;40.60;21.30;;;;;;5032950;28;20676;-75
2022/04/17 14:01:17;;;;;;;1.07;0.90;;;40.20;20.90;;;;;;5032909;28;20508;-75
2022/04/17 14:03:45;;;;;;;1.10;0.87;;;40.00;21.20;;;;;;5032790;28;20489;-75
2022/04/17 14:06:37;;;;;;;1.07;0.97;;;39.40;21.00;;;;;;5034031;28;20282;-75
2022/04/17 14:09:10;;;;;;;0.90;0.80;;;39.20;21.90;;;;;;5033974;28;20407;-74
2022/04/17 14:11:36;;;;;;;1.63;1.07;;;39.10;21.70;;;;;;5028158;28;20832;-74
2022/04/17 14:14:15;;;;;;;0.90;0.80;;;38.80;21.20;;;;;;5033793;28;20436;-74